sensor_id;sensor_type;location;lat;lon;timestamp;P1;durP1;ratioP1;P2;durP2;ratioP2
920;SDS011;447;51.332;6.778;2022-09-12T00:01:09;9.10;;;8.20;;
920;SDS011;447;51.332;6.778;2022-09-12T00:03:37;9.50;;;8.60;;
920;SDS011;447;51.332;6.778;2022-09-12T00:06:10;8.60;;;7.80;;
920;SDS011;447;51.332;6.778;2022-09-12T00:08:44;10.20;;;8.17;;
920;SDS011;447;51.332;6.778;2022-09-12T00:11:11;10.10;;;9.10;;
920;SDS011;447;51.332;6.778;2022-09-12T00:13:38;9.00;;;8.10;;
920;SDS011;447;51.332;6.778;2022-09-12T00:16:06;8.93;;;8.13;;
920;SDS011;447;51.332;6.778;2022-09-12T00:18:32;9.83;;;8.07;;
920;SDS011;447;51.332;6.778;2022-09-12T00:21:01;10.50;;;8.80;;
920;SDS011;447;51.332;6.778;2022-09-12T00:23:29;9.03;;;7.73;;
920;SDS011;447;51.332;6.778;2022-09-12T00:25:58;10.53;;;9.50;;
920;SDS011;447;51.332;6.778;2022-09-12T00:28:43;9.30;;;8.40;;
920;SDS011;447;51.332;6.778;2022-09-12T00:31:13;8.97;;;8.17;;
920;SDS011;447;51.332;6.778;2022-09-12T00:33:42;8.33;;;7.33;;
920;SDS011;447;51.332;6.778;2022-09-12T00:36:12;10.47;;;9.37;;
920;SDS011;447;51.332;6.778;2022-09-12T00:38:42;8.93;;;8.13;;
920;SDS011;447;51.332;6.778;2022-09-12T00:41:11;9.67;;;8.63;;
920;SDS011;447;51.332;6.778;2022-09-12T00:43:50;9.13;;;8.30;;
920;SDS011;447;51.332;6.778;2022-09-12T00:46:23;9.40;;;8.50;;
920;SDS011;447;51.332;6.778;2022-09-12T00:49:00;8.73;;;7.43;;
920;SDS011;447;51.332;6.778;2022-09-12T00:51:40;10.40;;;8.10;;
920;SDS011;447;51.332;6.778;2022-09-12T00:54:15;8.77;;;7.60;;
920;SDS011;447;51.332;6.778;2022-09-12T00:56:49;8.57;;;7.67;;
920;SDS011;447;51.332;6.778;2022-09-12T00:59:22;9.77;;;8.73;;
920;SDS011;447;51.332;6.778;2022-09-12T01:01:58;9.40;;;8.50;;
920;SDS011;447;51.332;6.778;2022-09-12T01:04:32;9.37;;;8.37;;
920;SDS011;447;51.332;6.778;2022-09-12T01:07:04;9.57;;;8.30;;
920;SDS011;447;51.332;6.778;2022-09-12T01:09:32;11.40;;;8.80;;
920;SDS011;447;51.332;6.778;2022-09-12T01:12:03;9.37;;;8.37;;
920;SDS011;447;51.332;6.778;2022-09-12T01:14:30;9.10;;;8.20;;
920;SDS011;447;51.332;6.778;2022-09-12T01:16:59;9.57;;;8.57;;
920;SDS011;447;51.332;6.778;2022-09-12T01:36:19;8.80;;;7.80;;
920;SDS011;447;51.332;6.778;2022-09-12T01:39:00;9.03;;;8.17;;
920;SDS011;447;51.332;6.778;2022-09-12T01:42:06;8.43;;;7.37;;
920;SDS011;447;51.332;6.778;2022-09-12T01:50:11;7.50;;;6.80;;
920;SDS011;447;51.332;6.778;2022-09-12T01:52:49;10.23;;;7.77;;
920;SDS011;447;51.332;6.778;2022-09-12T01:55:32;9.50;;;7.87;;
920;SDS011;447;51.332;6.778;2022-09-12T02:00:45;8.33;;;7.53;;
920;SDS011;447;51.332;6.778;2022-09-12T02:03:22;8.40;;;7.60;;
920;SDS011;447;51.332;6.778;2022-09-12T02:08:33;11.20;;;7.97;;
920;SDS011;447;51.332;6.778;2022-09-12T02:11:09;8.93;;;7.97;;
920;SDS011;447;51.332;6.778;2022-09-12T02:13:47;9.77;;;7.80;;
920;SDS011;447;51.332;6.778;2022-09-12T02:18:58;9.40;;;8.40;;
920;SDS011;447;51.332;6.778;2022-09-12T02:21:51;8.53;;;7.63;;
920;SDS011;447;51.332;6.778;2022-09-12T02:24:21;9.03;;;7.80;;
920;SDS011;447;51.332;6.778;2022-09-12T02:26:55;9.90;;;7.40;;
920;SDS011;447;51.332;6.778;2022-09-12T02:29:39;9.20;;;8.17;;
920;SDS011;447;51.332;6.778;2022-09-12T02:32:27;9.40;;;7.93;;
920;SDS011;447;51.332;6.778;2022-09-12T02:35:24;8.23;;;7.43;;
920;SDS011;447;51.332;6.778;2022-09-12T02:38:07;7.97;;;7.20;;
920;SDS011;447;51.332;6.778;2022-09-12T02:40:41;7.93;;;6.90;;
920;SDS011;447;51.332;6.778;2022-09-12T02:43:08;7.87;;;7.07;;
920;SDS011;447;51.332;6.778;2022-09-12T02:45:34;7.97;;;7.17;;
920;SDS011;447;51.332;6.778;2022-09-12T02:48:02;8.03;;;7.30;;
920;SDS011;447;51.332;6.778;2022-09-12T02:50:35;12.10;;;7.37;;
920;SDS011;447;51.332;6.778;2022-09-12T02:53:05;8.60;;;7.70;;
920;SDS011;447;51.332;6.778;2022-09-12T02:55:33;8.80;;;7.40;;
920;SDS011;447;51.332;6.778;2022-09-12T02:58:04;8.60;;;7.80;;
920;SDS011;447;51.332;6.778;2022-09-12T03:00:36;8.07;;;6.87;;
920;SDS011;447;51.332;6.778;2022-09-12T03:07:20;9.03;;;7.53;;
920;SDS011;447;51.332;6.778;2022-09-12T03:09:33;9.20;;;7.53;;
920;SDS011;447;51.332;6.778;2022-09-12T03:15:31;9.70;;;8.57;;
920;SDS011;447;51.332;6.778;2022-09-12T03:18:31;8.20;;;7.40;;
920;SDS011;447;51.332;6.778;2022-09-12T03:24:10;11.43;;;8.30;;
920;SDS011;447;51.332;6.778;2022-09-12T03:26:54;9.17;;;7.80;;
920;SDS011;447;51.332;6.778;2022-09-12T03:29:28;9.13;;;7.63;;
920;SDS011;447;51.332;6.778;2022-09-12T03:31:56;8.90;;;7.80;;
920;SDS011;447;51.332;6.778;2022-09-12T03:34:24;8.33;;;7.17;;
920;SDS011;447;51.332;6.778;2022-09-12T03:36:51;7.70;;;6.90;;
920;SDS011;447;51.332;6.778;2022-09-12T03:39:20;9.77;;;8.23;;
920;SDS011;447;51.332;6.778;2022-09-12T03:41:51;9.67;;;6.70;;
920;SDS011;447;51.332;6.778;2022-09-12T03:44:23;8.60;;;7.30;;
920;SDS011;447;51.332;6.778;2022-09-12T03:46:51;9.87;;;7.37;;
920;SDS011;447;51.332;6.778;2022-09-12T03:49:19;8.57;;;7.10;;
920;SDS011;447;51.332;6.778;2022-09-12T03:51:47;9.93;;;8.27;;
920;SDS011;447;51.332;6.778;2022-09-12T03:54:13;8.70;;;7.73;;
920;SDS011;447;51.332;6.778;2022-09-12T03:56:39;8.63;;;7.73;;
920;SDS011;447;51.332;6.778;2022-09-12T03:59:06;9.60;;;7.10;;
920;SDS011;447;51.332;6.778;2022-09-12T04:01:34;9.67;;;7.47;;
920;SDS011;447;51.332;6.778;2022-09-12T04:04:02;8.33;;;6.83;;
920;SDS011;447;51.332;6.778;2022-09-12T04:06:28;8.80;;;6.87;;
920;SDS011;447;51.332;6.778;2022-09-12T04:08:56;8.53;;;7.67;;
920;SDS011;447;51.332;6.778;2022-09-12T04:11:24;8.70;;;7.37;;
920;SDS011;447;51.332;6.778;2022-09-12T04:13:50;8.93;;;7.90;;
920;SDS011;447;51.332;6.778;2022-09-12T04:16:16;7.93;;;7.17;;
920;SDS011;447;51.332;6.778;2022-09-12T04:18:50;11.70;;;7.67;;
920;SDS011;447;51.332;6.778;2022-09-12T04:21:19;8.97;;;7.40;;
920;SDS011;447;51.332;6.778;2022-09-12T04:23:46;8.50;;;7.67;;
920;SDS011;447;51.332;6.778;2022-09-12T04:26:13;8.40;;;7.10;;
920;SDS011;447;51.332;6.778;2022-09-12T04:28:45;7.70;;;6.80;;
920;SDS011;447;51.332;6.778;2022-09-12T04:31:12;8.93;;;7.50;;
920;SDS011;447;51.332;6.778;2022-09-12T04:33:42;8.13;;;7.33;;
920;SDS011;447;51.332;6.778;2022-09-12T04:36:15;8.50;;;7.60;;
920;SDS011;447;51.332;6.778;2022-09-12T04:38:42;7.37;;;6.67;;
920;SDS011;447;51.332;6.778;2022-09-12T04:41:16;7.90;;;7.20;;
920;SDS011;447;51.332;6.778;2022-09-12T04:43:45;10.40;;;7.40;;
920;SDS011;447;51.332;6.778;2022-09-12T04:46:18;7.93;;;7.13;;
920;SDS011;447;51.332;6.778;2022-09-12T04:48:47;9.17;;;7.47;;
920;SDS011;447;51.332;6.778;2022-09-12T04:53:46;7.37;;;6.43;;
920;SDS011;447;51.332;6.778;2022-09-12T04:56:14;7.90;;;7.10;;
920;SDS011;447;51.332;6.778;2022-09-12T04:58:42;10.00;;;6.90;;
920;SDS011;447;51.332;6.778;2022-09-12T05:01:11;8.17;;;7.37;;
920;SDS011;447;51.332;6.778;2022-09-12T05:03:40;7.40;;;6.70;;
920;SDS011;447;51.332;6.778;2022-09-12T05:06:13;7.53;;;6.77;;
920;SDS011;447;51.332;6.778;2022-09-12T05:08:41;8.20;;;7.10;;
920;SDS011;447;51.332;6.778;2022-09-12T05:11:15;7.93;;;6.33;;
920;SDS011;447;51.332;6.778;2022-09-12T05:13:47;7.97;;;6.97;;
920;SDS011;447;51.332;6.778;2022-09-12T05:16:16;7.50;;;6.80;;
920;SDS011;447;51.332;6.778;2022-09-12T05:18:50;7.33;;;6.60;;
920;SDS011;447;51.332;6.778;2022-09-12T05:21:17;7.90;;;7.10;;
920;SDS011;447;51.332;6.778;2022-09-12T05:23:45;7.23;;;6.53;;
920;SDS011;447;51.332;6.778;2022-09-12T05:26:17;7.73;;;7.03;;
920;SDS011;447;51.332;6.778;2022-09-12T05:28:47;7.87;;;6.97;;
920;SDS011;447;51.332;6.778;2022-09-12T05:31:21;7.47;;;6.77;;
920;SDS011;447;51.332;6.778;2022-09-12T05:33:49;7.97;;;6.53;;
920;SDS011;447;51.332;6.778;2022-09-12T05:36:18;7.93;;;6.97;;
920;SDS011;447;51.332;6.778;2022-09-12T05:38:48;6.90;;;6.30;;
920;SDS011;447;51.332;6.778;2022-09-12T05:41:18;9.20;;;7.17;;
920;SDS011;447;51.332;6.778;2022-09-12T05:43:54;9.30;;;7.53;;
920;SDS011;447;51.332;6.778;2022-09-12T05:46:42;7.33;;;6.60;;
920;SDS011;447;51.332;6.778;2022-09-12T05:49:10;7.13;;;6.43;;
920;SDS011;447;51.332;6.778;2022-09-12T05:51:41;7.63;;;6.80;;
920;SDS011;447;51.332;6.778;2022-09-12T05:54:09;9.00;;;7.03;;
920;SDS011;447;51.332;6.778;2022-09-12T05:56:50;7.10;;;6.40;;
920;SDS011;447;51.332;6.778;2022-09-12T05:59:19;6.97;;;6.27;;
920;SDS011;447;51.332;6.778;2022-09-12T06:01:51;7.47;;;6.50;;
920;SDS011;447;51.332;6.778;2022-09-12T06:04:17;6.90;;;6.20;;
920;SDS011;447;51.332;6.778;2022-09-12T06:06:46;7.10;;;6.40;;
920;SDS011;447;51.332;6.778;2022-09-12T06:09:13;7.47;;;6.87;;
920;SDS011;447;51.332;6.778;2022-09-12T06:11:41;7.13;;;6.40;;
920;SDS011;447;51.332;6.778;2022-09-12T06:14:11;7.00;;;5.80;;
920;SDS011;447;51.332;6.778;2022-09-12T06:16:40;7.17;;;6.47;;
920;SDS011;447;51.332;6.778;2022-09-12T06:19:10;7.90;;;7.10;;
920;SDS011;447;51.332;6.778;2022-09-12T06:21:41;6.60;;;6.00;;
920;SDS011;447;51.332;6.778;2022-09-12T06:24:33;7.67;;;6.90;;
920;SDS011;447;51.332;6.778;2022-09-12T06:26:59;8.77;;;6.87;;
920;SDS011;447;51.332;6.778;2022-09-12T06:29:27;9.50;;;6.67;;
920;SDS011;447;51.332;6.778;2022-09-12T06:31:53;6.60;;;6.00;;
920;SDS011;447;51.332;6.778;2022-09-12T06:34:21;7.57;;;6.00;;
920;SDS011;447;51.332;6.778;2022-09-12T06:36:52;6.30;;;5.70;;
920;SDS011;447;51.332;6.778;2022-09-12T06:39:19;8.03;;;6.40;;
920;SDS011;447;51.332;6.778;2022-09-12T06:41:46;6.30;;;5.70;;
920;SDS011;447;51.332;6.778;2022-09-12T06:44:20;8.23;;;6.60;;
920;SDS011;447;51.332;6.778;2022-09-12T06:46:47;7.93;;;5.57;;
920;SDS011;447;51.332;6.778;2022-09-12T06:49:13;6.30;;;5.10;;
920;SDS011;447;51.332;6.778;2022-09-12T06:51:42;6.60;;;6.00;;
920;SDS011;447;51.332;6.778;2022-09-12T06:54:11;6.97;;;6.27;;
920;SDS011;447;51.332;6.778;2022-09-12T06:56:40;6.73;;;6.03;;
920;SDS011;447;51.332;6.778;2022-09-12T06:59:11;8.07;;;6.40;;
920;SDS011;447;51.332;6.778;2022-09-12T07:01:37;7.27;;;6.27;;
920;SDS011;447;51.332;6.778;2022-09-12T07:04:04;6.37;;;5.70;;
920;SDS011;447;51.332;6.778;2022-09-12T07:06:36;6.90;;;6.30;;
920;SDS011;447;51.332;6.778;2022-09-12T07:09:08;7.00;;;6.30;;
920;SDS011;447;51.332;6.778;2022-09-12T07:11:38;7.13;;;5.53;;
920;SDS011;447;51.332;6.778;2022-09-12T07:14:06;6.00;;;5.47;;
920;SDS011;447;51.332;6.778;2022-09-12T07:16:34;6.40;;;5.80;;
920;SDS011;447;51.332;6.778;2022-09-12T07:19:03;5.90;;;5.30;;
920;SDS011;447;51.332;6.778;2022-09-12T07:21:33;7.67;;;5.87;;
920;SDS011;447;51.332;6.778;2022-09-12T07:24:04;6.77;;;6.07;;
920;SDS011;447;51.332;6.778;2022-09-12T07:26:30;6.33;;;5.73;;
920;SDS011;447;51.332;6.778;2022-09-12T07:29:01;6.00;;;5.40;;
920;SDS011;447;51.332;6.778;2022-09-12T07:31:29;7.20;;;5.77;;
920;SDS011;447;51.332;6.778;2022-09-12T07:33:55;7.23;;;5.97;;
920;SDS011;447;51.332;6.778;2022-09-12T07:36:22;7.07;;;5.97;;
920;SDS011;447;51.332;6.778;2022-09-12T07:38:55;7.10;;;5.40;;
920;SDS011;447;51.332;6.778;2022-09-12T07:41:24;8.17;;;5.80;;
920;SDS011;447;51.332;6.778;2022-09-12T07:43:57;5.87;;;5.37;;
920;SDS011;447;51.332;6.778;2022-09-12T07:46:25;6.47;;;5.87;;
920;SDS011;447;51.332;6.778;2022-09-12T07:48:52;6.17;;;5.57;;
920;SDS011;447;51.332;6.778;2022-09-12T07:51:23;8.00;;;6.13;;
920;SDS011;447;51.332;6.778;2022-09-12T07:53:52;6.37;;;5.60;;
920;SDS011;447;51.332;6.778;2022-09-12T07:56:18;6.47;;;5.77;;
920;SDS011;447;51.332;6.778;2022-09-12T07:58:53;8.40;;;6.00;;
920;SDS011;447;51.332;6.778;2022-09-12T08:01:21;6.33;;;5.70;;
920;SDS011;447;51.332;6.778;2022-09-12T08:03:56;5.90;;;5.40;;
920;SDS011;447;51.332;6.778;2022-09-12T08:06:27;7.50;;;5.50;;
920;SDS011;447;51.332;6.778;2022-09-12T08:08:58;6.50;;;5.90;;
920;SDS011;447;51.332;6.778;2022-09-12T08:11:27;8.27;;;6.20;;
920;SDS011;447;51.332;6.778;2022-09-12T08:13:55;7.07;;;6.20;;
920;SDS011;447;51.332;6.778;2022-09-12T08:16:25;6.43;;;5.80;;
920;SDS011;447;51.332;6.778;2022-09-12T08:18:52;6.20;;;5.57;;
920;SDS011;447;51.332;6.778;2022-09-12T08:21:19;6.67;;;5.33;;
920;SDS011;447;51.332;6.778;2022-09-12T08:23:50;8.83;;;6.90;;
920;SDS011;447;51.332;6.778;2022-09-12T08:26:21;7.20;;;6.07;;
920;SDS011;447;51.332;6.778;2022-09-12T08:28:48;7.07;;;6.37;;
920;SDS011;447;51.332;6.778;2022-09-12T08:31:15;6.83;;;6.13;;
920;SDS011;447;51.332;6.778;2022-09-12T08:33:45;6.70;;;6.10;;
920;SDS011;447;51.332;6.778;2022-09-12T08:38:46;8.77;;;6.07;;
920;SDS011;447;51.332;6.778;2022-09-12T08:49:36;7.33;;;6.53;;
920;SDS011;447;51.332;6.778;2022-09-12T08:52:12;8.13;;;6.80;;
920;SDS011;447;51.332;6.778;2022-09-12T08:54:48;7.50;;;6.50;;
920;SDS011;447;51.332;6.778;2022-09-12T08:57:19;8.40;;;7.17;;
920;SDS011;447;51.332;6.778;2022-09-12T08:59:45;7.60;;;6.90;;
920;SDS011;447;51.332;6.778;2022-09-12T09:02:43;7.10;;;5.87;;
920;SDS011;447;51.332;6.778;2022-09-12T09:08:29;7.60;;;6.53;;
920;SDS011;447;51.332;6.778;2022-09-12T09:16:40;7.90;;;5.50;;
920;SDS011;447;51.332;6.778;2022-09-12T09:19:25;6.40;;;5.67;;
920;SDS011;447;51.332;6.778;2022-09-12T09:21:58;6.53;;;5.70;;
920;SDS011;447;51.332;6.778;2022-09-12T09:24:31;10.27;;;6.50;;
920;SDS011;447;51.332;6.778;2022-09-12T09:27:13;6.87;;;6.03;;
920;SDS011;447;51.332;6.778;2022-09-12T09:29:50;6.60;;;5.67;;
920;SDS011;447;51.332;6.778;2022-09-12T09:32:25;7.30;;;6.60;;
920;SDS011;447;51.332;6.778;2022-09-12T09:35:01;6.60;;;5.80;;
920;SDS011;447;51.332;6.778;2022-09-12T09:45:23;5.63;;;5.10;;
920;SDS011;447;51.332;6.778;2022-09-12T09:50:34;6.77;;;6.10;;
920;SDS011;447;51.332;6.778;2022-09-12T09:53:08;7.03;;;6.33;;
920;SDS011;447;51.332;6.778;2022-09-12T09:55:46;9.13;;;6.73;;
920;SDS011;447;51.332;6.778;2022-09-12T09:58:30;9.03;;;6.87;;
920;SDS011;447;51.332;6.778;2022-09-12T10:01:05;9.53;;;7.13;;
920;SDS011;447;51.332;6.778;2022-09-12T10:03:41;6.60;;;6.00;;
920;SDS011;447;51.332;6.778;2022-09-12T10:08:48;7.70;;;6.37;;
920;SDS011;447;51.332;6.778;2022-09-12T10:11:21;6.93;;;5.93;;
920;SDS011;447;51.332;6.778;2022-09-12T10:13:55;8.00;;;6.33;;
920;SDS011;447;51.332;6.778;2022-09-12T10:18:52;6.97;;;6.00;;
920;SDS011;447;51.332;6.778;2022-09-12T10:26:55;9.00;;;6.77;;
920;SDS011;447;51.332;6.778;2022-09-12T10:30:21;6.83;;;6.03;;
920;SDS011;447;51.332;6.778;2022-09-12T10:32:29;7.13;;;6.20;;
920;SDS011;447;51.332;6.778;2022-09-12T10:35:15;6.17;;;5.57;;
920;SDS011;447;51.332;6.778;2022-09-12T10:40:24;6.47;;;5.40;;
920;SDS011;447;51.332;6.778;2022-09-12T10:42:55;7.00;;;6.03;;
920;SDS011;447;51.332;6.778;2022-09-12T10:48:00;7.57;;;5.90;;
920;SDS011;447;51.332;6.778;2022-09-12T10:50:38;7.00;;;6.00;;
920;SDS011;447;51.332;6.778;2022-09-12T10:55:58;6.40;;;5.80;;
920;SDS011;447;51.332;6.778;2022-09-12T11:04:04;6.40;;;5.23;;
920;SDS011;447;51.332;6.778;2022-09-12T11:09:37;5.03;;;4.53;;
920;SDS011;447;51.332;6.778;2022-09-12T11:28:27;5.17;;;4.77;;
920;SDS011;447;51.332;6.778;2022-09-12T11:34:02;7.60;;;5.00;;
920;SDS011;447;51.332;6.778;2022-09-12T11:39:36;5.23;;;4.70;;
920;SDS011;447;51.332;6.778;2022-09-12T11:42:10;5.60;;;4.67;;
920;SDS011;447;51.332;6.778;2022-09-12T11:44:50;5.17;;;4.77;;
920;SDS011;447;51.332;6.778;2022-09-12T11:47:31;5.37;;;4.97;;
920;SDS011;447;51.332;6.778;2022-09-12T11:50:00;5.23;;;4.60;;
920;SDS011;447;51.332;6.778;2022-09-12T11:52:32;5.10;;;4.70;;
920;SDS011;447;51.332;6.778;2022-09-12T11:57:46;4.97;;;4.53;;
920;SDS011;447;51.332;6.778;2022-09-12T12:00:21;4.50;;;4.10;;
920;SDS011;447;51.332;6.778;2022-09-12T12:03:32;5.20;;;4.70;;
920;SDS011;447;51.332;6.778;2022-09-12T12:06:06;4.50;;;4.10;;
920;SDS011;447;51.332;6.778;2022-09-12T12:08:46;4.30;;;3.90;;
920;SDS011;447;51.332;6.778;2022-09-12T12:11:22;5.03;;;4.57;;
920;SDS011;447;51.332;6.778;2022-09-12T12:14:17;4.10;;;3.80;;
920;SDS011;447;51.332;6.778;2022-09-12T12:16:47;4.13;;;3.80;;
920;SDS011;447;51.332;6.778;2022-09-12T12:19:36;4.50;;;4.10;;
920;SDS011;447;51.332;6.778;2022-09-12T12:22:05;4.83;;;4.43;;
920;SDS011;447;51.332;6.778;2022-09-12T12:27:57;4.13;;;3.40;;
920;SDS011;447;51.332;6.778;2022-09-12T12:33:01;4.30;;;4.00;;
920;SDS011;447;51.332;6.778;2022-09-12T12:38:25;5.67;;;4.10;;
920;SDS011;447;51.332;6.778;2022-09-12T12:41:09;4.20;;;3.80;;
920;SDS011;447;51.332;6.778;2022-09-12T12:43:46;4.40;;;4.00;;
920;SDS011;447;51.332;6.778;2022-09-12T12:46:17;3.70;;;3.40;;
920;SDS011;447;51.332;6.778;2022-09-12T12:53:51;4.33;;;4.03;;
920;SDS011;447;51.332;6.778;2022-09-12T12:56:37;4.53;;;4.17;;
920;SDS011;447;51.332;6.778;2022-09-12T12:59:19;4.30;;;3.90;;
920;SDS011;447;51.332;6.778;2022-09-12T13:01:48;4.50;;;4.10;;
920;SDS011;447;51.332;6.778;2022-09-12T13:04:20;4.60;;;4.20;;
920;SDS011;447;51.332;6.778;2022-09-12T13:07:04;4.67;;;4.27;;
920;SDS011;447;51.332;6.778;2022-09-12T13:09:43;4.63;;;4.23;;
920;SDS011;447;51.332;6.778;2022-09-12T13:12:34;4.43;;;4.13;;
920;SDS011;447;51.332;6.778;2022-09-12T13:15:00;4.23;;;3.83;;
920;SDS011;447;51.332;6.778;2022-09-12T13:17:42;4.37;;;3.97;;
920;SDS011;447;51.332;6.778;2022-09-12T13:22:46;4.80;;;4.27;;
920;SDS011;447;51.332;6.778;2022-09-12T13:27:55;4.40;;;4.10;;
920;SDS011;447;51.332;6.778;2022-09-12T13:30:29;4.50;;;4.10;;
920;SDS011;447;51.332;6.778;2022-09-12T13:33:01;3.80;;;3.60;;
920;SDS011;447;51.332;6.778;2022-09-12T13:38:36;4.30;;;3.90;;
920;SDS011;447;51.332;6.778;2022-09-12T13:43:53;4.33;;;4.03;;
920;SDS011;447;51.332;6.778;2022-09-12T13:46:26;3.90;;;3.60;;
920;SDS011;447;51.332;6.778;2022-09-12T13:48:56;4.00;;;3.70;;
920;SDS011;447;51.332;6.778;2022-09-12T13:51:27;4.00;;;3.70;;
920;SDS011;447;51.332;6.778;2022-09-12T13:54:02;3.87;;;3.57;;
920;SDS011;447;51.332;6.778;2022-09-12T13:56:29;4.23;;;3.93;;
920;SDS011;447;51.332;6.778;2022-09-12T13:59:00;4.47;;;4.07;;
920;SDS011;447;51.332;6.778;2022-09-12T14:01:39;5.20;;;4.30;;
920;SDS011;447;51.332;6.778;2022-09-12T14:07:08;3.70;;;3.40;;
920;SDS011;447;51.332;6.778;2022-09-12T14:09:45;4.17;;;3.77;;
920;SDS011;447;51.332;6.778;2022-09-12T14:12:27;4.33;;;4.00;;
920;SDS011;447;51.332;6.778;2022-09-12T14:14:56;4.40;;;4.00;;
920;SDS011;447;51.332;6.778;2022-09-12T14:17:23;3.97;;;3.67;;
920;SDS011;447;51.332;6.778;2022-09-12T14:19:57;4.20;;;3.90;;
920;SDS011;447;51.332;6.778;2022-09-12T14:22:34;4.17;;;3.87;;
920;SDS011;447;51.332;6.778;2022-09-12T14:25:03;4.17;;;3.87;;
920;SDS011;447;51.332;6.778;2022-09-12T14:27:43;4.13;;;3.83;;
920;SDS011;447;51.332;6.778;2022-09-12T14:36:33;4.37;;;4.00;;
920;SDS011;447;51.332;6.778;2022-09-12T14:39:00;3.67;;;3.43;;
920;SDS011;447;51.332;6.778;2022-09-12T14:41:36;4.10;;;3.80;;
920;SDS011;447;51.332;6.778;2022-09-12T14:44:06;4.50;;;4.17;;
920;SDS011;447;51.332;6.778;2022-09-12T14:46:36;4.10;;;3.80;;
920;SDS011;447;51.332;6.778;2022-09-12T14:49:15;4.10;;;3.80;;
920;SDS011;447;51.332;6.778;2022-09-12T14:57:01;3.83;;;3.43;;
920;SDS011;447;51.332;6.778;2022-09-12T15:07:24;4.00;;;3.70;;
920;SDS011;447;51.332;6.778;2022-09-12T15:10:34;4.13;;;3.83;;
920;SDS011;447;51.332;6.778;2022-09-12T15:13:02;3.80;;;3.50;;
920;SDS011;447;51.332;6.778;2022-09-12T15:15:37;3.83;;;3.53;;
920;SDS011;447;51.332;6.778;2022-09-12T15:18:05;3.47;;;3.27;;
920;SDS011;447;51.332;6.778;2022-09-12T15:20:54;4.30;;;3.90;;
920;SDS011;447;51.332;6.778;2022-09-12T15:26:00;3.27;;;3.07;;
920;SDS011;447;51.332;6.778;2022-09-12T15:28:28;3.73;;;3.47;;
920;SDS011;447;51.332;6.778;2022-09-12T15:30:55;4.03;;;3.73;;
920;SDS011;447;51.332;6.778;2022-09-12T15:33:22;3.97;;;3.67;;
920;SDS011;447;51.332;6.778;2022-09-12T15:35:49;4.10;;;3.60;;
920;SDS011;447;51.332;6.778;2022-09-12T15:38:18;3.50;;;3.20;;
920;SDS011;447;51.332;6.778;2022-09-12T15:41:01;3.60;;;3.30;;
920;SDS011;447;51.332;6.778;2022-09-12T15:43:29;3.70;;;3.40;;
920;SDS011;447;51.332;6.778;2022-09-12T15:45:55;4.13;;;3.50;;
920;SDS011;447;51.332;6.778;2022-09-12T15:48:23;3.70;;;3.40;;
920;SDS011;447;51.332;6.778;2022-09-12T15:50:50;3.83;;;3.53;;
920;SDS011;447;51.332;6.778;2022-09-12T15:53:16;3.70;;;3.40;;
920;SDS011;447;51.332;6.778;2022-09-12T15:55:42;3.40;;;3.20;;
920;SDS011;447;51.332;6.778;2022-09-12T15:58:11;3.60;;;3.30;;
920;SDS011;447;51.332;6.778;2022-09-12T16:00:41;3.57;;;3.27;;
920;SDS011;447;51.332;6.778;2022-09-12T16:03:23;4.07;;;3.77;;
920;SDS011;447;51.332;6.778;2022-09-12T16:05:56;3.50;;;3.20;;
920;SDS011;447;51.332;6.778;2022-09-12T16:08:26;3.80;;;3.30;;
920;SDS011;447;51.332;6.778;2022-09-12T16:11:00;3.90;;;3.60;;
920;SDS011;447;51.332;6.778;2022-09-12T16:13:45;3.70;;;3.40;;
920;SDS011;447;51.332;6.778;2022-09-12T16:16:14;3.87;;;3.57;;
920;SDS011;447;51.332;6.778;2022-09-12T16:18:40;3.57;;;3.27;;
920;SDS011;447;51.332;6.778;2022-09-12T16:21:06;3.67;;;3.37;;
920;SDS011;447;51.332;6.778;2022-09-12T16:23:32;3.50;;;3.20;;
920;SDS011;447;51.332;6.778;2022-09-12T16:25:59;4.63;;;3.40;;
920;SDS011;447;51.332;6.778;2022-09-12T16:28:30;3.30;;;3.10;;
920;SDS011;447;51.332;6.778;2022-09-12T16:31:00;3.80;;;3.50;;
920;SDS011;447;51.332;6.778;2022-09-12T16:33:29;3.60;;;3.30;;
920;SDS011;447;51.332;6.778;2022-09-12T16:38:31;3.60;;;3.30;;
920;SDS011;447;51.332;6.778;2022-09-12T16:40:59;3.93;;;3.63;;
920;SDS011;447;51.332;6.778;2022-09-12T16:43:32;3.80;;;3.50;;
920;SDS011;447;51.332;6.778;2022-09-12T16:46:00;3.87;;;3.57;;
920;SDS011;447;51.332;6.778;2022-09-12T16:48:27;3.70;;;3.40;;
920;SDS011;447;51.332;6.778;2022-09-12T16:50:56;3.60;;;3.40;;
920;SDS011;447;51.332;6.778;2022-09-12T16:53:29;3.70;;;3.40;;
920;SDS011;447;51.332;6.778;2022-09-12T16:55:56;3.60;;;3.40;;
920;SDS011;447;51.332;6.778;2022-09-12T16:58:22;3.67;;;3.37;;
920;SDS011;447;51.332;6.778;2022-09-12T17:00:48;4.37;;;3.57;;
920;SDS011;447;51.332;6.778;2022-09-12T17:03:14;3.90;;;3.47;;
920;SDS011;447;51.332;6.778;2022-09-12T17:05:41;3.93;;;3.60;;
920;SDS011;447;51.332;6.778;2022-09-12T17:08:29;3.80;;;3.50;;
920;SDS011;447;51.332;6.778;2022-09-12T17:11:06;3.63;;;3.33;;
920;SDS011;447;51.332;6.778;2022-09-12T17:13:37;4.20;;;3.57;;
920;SDS011;447;51.332;6.778;2022-09-12T17:16:13;4.20;;;3.83;;
920;SDS011;447;51.332;6.778;2022-09-12T17:18:41;3.90;;;3.60;;
920;SDS011;447;51.332;6.778;2022-09-12T17:21:07;3.77;;;3.47;;
920;SDS011;447;51.332;6.778;2022-09-12T17:23:34;3.57;;;3.30;;
920;SDS011;447;51.332;6.778;2022-09-12T17:26:01;3.23;;;2.93;;
920;SDS011;447;51.332;6.778;2022-09-12T17:28:27;3.17;;;2.97;;
920;SDS011;447;51.332;6.778;2022-09-12T17:31:05;4.00;;;3.70;;
920;SDS011;447;51.332;6.778;2022-09-12T17:33:36;3.80;;;3.50;;
920;SDS011;447;51.332;6.778;2022-09-12T17:36:10;4.40;;;4.00;;
920;SDS011;447;51.332;6.778;2022-09-12T17:38:39;3.90;;;3.60;;
920;SDS011;447;51.332;6.778;2022-09-12T17:41:16;4.17;;;3.77;;
920;SDS011;447;51.332;6.778;2022-09-12T17:43:44;3.63;;;3.33;;
920;SDS011;447;51.332;6.778;2022-09-12T17:46:18;3.80;;;3.50;;
920;SDS011;447;51.332;6.778;2022-09-12T17:48:49;3.63;;;3.40;;
920;SDS011;447;51.332;6.778;2022-09-12T17:51:16;3.50;;;3.20;;
920;SDS011;447;51.332;6.778;2022-09-12T17:53:46;4.50;;;4.10;;
920;SDS011;447;51.332;6.778;2022-09-12T17:56:12;3.73;;;3.43;;
920;SDS011;447;51.332;6.778;2022-09-12T17:58:41;4.40;;;3.30;;
920;SDS011;447;51.332;6.778;2022-09-12T18:01:10;3.90;;;3.60;;
920;SDS011;447;51.332;6.778;2022-09-12T18:03:57;3.87;;;3.47;;
920;SDS011;447;51.332;6.778;2022-09-12T18:06:29;3.20;;;2.90;;
920;SDS011;447;51.332;6.778;2022-09-12T18:09:00;4.20;;;3.90;;
920;SDS011;447;51.332;6.778;2022-09-12T18:11:27;3.40;;;3.17;;
920;SDS011;447;51.332;6.778;2022-09-12T18:13:53;4.33;;;3.60;;
920;SDS011;447;51.332;6.778;2022-09-12T18:16:20;3.73;;;3.43;;
920;SDS011;447;51.332;6.778;2022-09-12T18:18:45;5.83;;;3.83;;
920;SDS011;447;51.332;6.778;2022-09-12T18:21:12;3.70;;;3.40;;
920;SDS011;447;51.332;6.778;2022-09-12T18:23:40;3.93;;;3.57;;
920;SDS011;447;51.332;6.778;2022-09-12T18:26:11;5.07;;;3.40;;
920;SDS011;447;51.332;6.778;2022-09-12T18:28:42;3.43;;;3.13;;
920;SDS011;447;51.332;6.778;2022-09-12T18:31:11;4.27;;;3.87;;
920;SDS011;447;51.332;6.778;2022-09-12T18:33:39;4.30;;;3.60;;
920;SDS011;447;51.332;6.778;2022-09-12T18:36:05;4.40;;;3.87;;
920;SDS011;447;51.332;6.778;2022-09-12T18:38:38;4.47;;;3.60;;
920;SDS011;447;51.332;6.778;2022-09-12T18:41:23;4.07;;;3.77;;
920;SDS011;447;51.332;6.778;2022-09-12T18:43:54;4.10;;;3.80;;
920;SDS011;447;51.332;6.778;2022-09-12T18:46:27;3.43;;;3.20;;
920;SDS011;447;51.332;6.778;2022-09-12T18:48:54;4.23;;;3.93;;
920;SDS011;447;51.332;6.778;2022-09-12T18:51:25;4.80;;;4.27;;
920;SDS011;447;51.332;6.778;2022-09-12T18:54:00;4.47;;;4.10;;
920;SDS011;447;51.332;6.778;2022-09-12T18:56:31;3.70;;;3.40;;
920;SDS011;447;51.332;6.778;2022-09-12T18:59:00;4.00;;;3.70;;
920;SDS011;447;51.332;6.778;2022-09-12T19:01:31;3.60;;;3.30;;
920;SDS011;447;51.332;6.778;2022-09-12T19:03:58;4.87;;;4.47;;
920;SDS011;447;51.332;6.778;2022-09-12T19:06:33;4.53;;;4.13;;
920;SDS011;447;51.332;6.778;2022-09-12T19:09:03;4.70;;;4.30;;
920;SDS011;447;51.332;6.778;2022-09-12T19:11:32;4.03;;;3.73;;
920;SDS011;447;51.332;6.778;2022-09-12T19:14:19;3.93;;;3.53;;